Time;durP1;ratioP1;P1;durP2;ratioP2;P2;SDS_P1;SDS_P2;PMS_P1;PMS_P2;Temp;Humidity;BMP_temperature;BMP_pressure;BME280_temperature;BME280_humidity;BME280_pressure;Samples;Min_cycle;Max_cycle;Signal;HPM_P1;HPM_P2
2022/04/25 00:01:15;;;;;;;0.10;0.10;;;;;;;;;;5069678;28;20078;-78
2022/04/25 00:03:41;;;;;;;0.10;0.10;;;;;;;;;;5069793;28;20025;-78
2022/04/25 00:06:07;;;;;;;0.10;0.10;;;;;;;;;;5069453;28;20027;-78
2022/04/25 00:08:33;;;;;;;0.10;0.10;;;;;;;;;;5069162;28;20025;-78
2022/04/25 00:10:59;;;;;;;0.10;0.10;;;;;;;;;;5069411;28;20025;-78
2022/04/25 00:13:25;;;;;;;0.10;0.10;;;;;;;;;;5069162;28;20077;-78
2022/04/25 00:15:52;;;;;;;0.10;0.10;;;;;;;;;;5070550;28;20020;-78
2022/04/25 00:18:18;;;;;;;0.10;0.10;;;;;;;;;;5069167;28;20028;-78
2022/04/25 00:20:44;;;;;;;0.20;0.20;;;;;;;;;;5069571;28;20020;-78
2022/04/25 00:23:10;;;;;;;0.10;0.10;;;;;;;;;;5070825;28;20039;-78
2022/04/25 00:25:37;;;;;;;0.10;0.10;;;;;;;;;;5070308;28;20052;-78
2022/04/25 00:28:04;;;;;;;0.10;0.10;;;;;;;;;;5070516;28;20484;-78
2022/04/25 00:30:30;;;;;;;0.10;0.10;;;;;;;;;;5070210;28;20025;-78
2022/04/25 00:32:56;;;;;;;0.10;0.10;;;;;;;;;;5069863;28;20569;-78
2022/04/25 00:35:23;;;;;;;0.10;0.10;;;;;;;;;;5073996;28;20450;-78
2022/04/25 00:37:49;;;;;;;0.10;0.10;;;;;;;;;;5074100;28;20051;-78
2022/04/25 00:40:16;;;;;;;0.10;0.10;;;;;;;;;;5073807;28;20028;-78
2022/04/25 00:42:42;;;;;;;0.10;0.10;;;;;;;;;;5072911;28;20500;-77
2022/04/25 00:45:11;;;;;;;0.10;0.10;;;;;;;;;;5072714;28;20103;-78
2022/04/25 00:47:37;;;;;;;0.10;0.10;;;;;;;;;;5072497;28;20119;-77
2022/04/25 00:50:03;;;;;;;0.10;0.10;;;;;;;;;;5072515;28;20388;-78
2022/04/25 00:52:29;;;;;;;0.10;0.10;;;;;;;;;;5073642;28;20085;-78
2022/04/25 00:54:57;;;;;;;0.10;0.10;;;;;;;;;;5072524;28;20330;-80
2022/04/25 00:57:23;;;;;;;0.17;0.17;;;;;;;;;;5072188;28;20025;-79
2022/04/25 00:59:49;;;;;;;0.10;0.10;;;;;;;;;;5072495;28;20629;-79
2022/04/25 01:02:15;;;;;;;0.10;0.10;;;;;;;;;;5073395;28;20043;-78
2022/04/25 01:04:43;;;;;;;0.10;0.10;;;;;;;;;;5073981;28;20092;-78
2022/04/25 01:07:09;;;;;;;0.10;0.10;;;;;;;;;;5072356;28;20028;-79
2022/04/25 01:09:35;;;;;;;0.20;0.20;;;;;;;;;;5072001;28;20028;-79
2022/04/25 01:12:01;;;;;;;0.10;0.10;;;;;;;;;;5073428;28;20024;-78
2022/04/25 01:14:27;;;;;;;0.10;0.10;;;;;;;;;;5071980;28;20032;-78
2022/04/25 01:16:54;;;;;;;0.10;0.10;;;;;;;;;;5072120;28;20028;-79
2022/04/25 01:19:20;;;;;;;0.13;0.13;;;;;;;;;;5073146;28;20036;-78
2022/04/25 01:21:56;;;;;;;0.10;0.10;;;;;;;;;;5071912;28;20287;-77
2022/04/25 01:27:18;;;;;;;0.10;0.10;;;;;;;;;;5073338;28;20086;-78
2022/04/25 01:29:44;;;;;;;0.10;0.10;;;;;;;;;;5072089;28;20024;-79
2022/04/25 01:32:10;;;;;;;0.10;0.10;;;;;;;;;;5073352;28;20099;-79
2022/04/25 01:34:37;;;;;;;0.10;0.10;;;;;;;;;;5071533;28;20025;-79
2022/04/25 01:37:08;;;;;;;0.10;0.10;;;;;;;;;;5071733;28;20029;-78
2022/04/25 01:39:34;;;;;;;0.10;0.10;;;;;;;;;;5071497;28;20115;-79
2022/04/25 01:42:01;;;;;;;0.10;0.10;;;;;;;;;;5071552;28;20127;-79
2022/04/25 01:44:27;;;;;;;0.10;0.10;;;;;;;;;;5071911;28;20016;-79
2022/04/25 01:46:53;;;;;;;0.10;0.10;;;;;;;;;;5072522;28;20040;-79
2022/04/25 01:49:19;;;;;;;0.10;0.10;;;;;;;;;;5071192;28;20418;-78
2022/04/25 01:51:45;;;;;;;0.10;0.10;;;;;;;;;;5072807;28;20036;-77
2022/04/25 01:54:11;;;;;;;0.10;0.10;;;;;;;;;;5072972;28;20017;-79
2022/04/25 01:56:37;;;;;;;0.10;0.10;;;;;;;;;;5072346;28;20035;-79
2022/04/25 01:59:03;;;;;;;0.10;0.10;;;;;;;;;;5072643;28;20021;-78
2022/04/25 02:01:29;;;;;;;0.10;0.10;;;;;;;;;;5070966;28;20035;-78
2022/04/25 02:03:55;;;;;;;0.10;0.10;;;;;;;;;;5071078;28;20024;-78
2022/04/25 02:06:21;;;;;;;0.10;0.10;;;;;;;;;;5070901;28;20024;-78
2022/04/25 02:08:47;;;;;;;0.10;0.10;;;;;;;;;;5072352;28;20027;-78
2022/04/25 02:11:21;;;;;;;0.10;0.10;;;;;;;;;;5071345;28;20028;-78
2022/04/25 02:13:47;;;;;;;0.10;0.10;;;;;;;;;;5072495;28;20078;-78
2022/04/25 02:16:14;;;;;;;0.10;0.10;;;;;;;;;;5071268;28;20029;-79
2022/04/25 02:18:40;;;;;;;0.10;0.10;;;;;;;;;;5071164;28;20020;-78
2022/04/25 02:21:07;;;;;;;0.10;0.10;;;;;;;;;;5072023;28;20099;-79
2022/04/25 02:23:33;;;;;;;0.10;0.10;;;;;;;;;;5072067;28;20035;-79
2022/04/25 02:26:00;;;;;;;0.10;0.10;;;;;;;;;;5070741;28;20035;-80
2022/04/25 02:28:26;;;;;;;0.10;0.10;;;;;;;;;;5070578;28;20055;-81
2022/04/25 02:30:52;;;;;;;0.10;0.10;;;;;;;;;;5070835;28;20024;-80
2022/04/25 02:33:18;;;;;;;0.20;0.20;;;;;;;;;;5071541;28;20377;-78
2022/04/25 02:35:44;;;;;;;0.10;0.10;;;;;;;;;;5072145;28;20032;-78
2022/04/25 02:38:11;;;;;;;0.10;0.10;;;;;;;;;;5070836;28;20507;-78
2022/04/25 02:40:37;;;;;;;0.10;0.10;;;;;;;;;;5070202;28;20361;-78
2022/04/25 02:43:03;;;;;;;0.10;0.10;;;;;;;;;;5070344;28;20029;-78
2022/04/25 02:45:29;;;;;;;0.10;0.10;;;;;;;;;;5070102;28;20490;-78
2022/04/25 02:47:55;;;;;;;0.10;0.10;;;;;;;;;;5071426;28;20032;-78
2022/04/25 02:50:22;;;;;;;0.10;0.10;;;;;;;;;;5071346;28;20448;-79
2022/04/25 02:52:51;;;;;;;0.10;0.10;;;;;;;;;;5070548;28;20024;-78
2022/04/25 02:55:17;;;;;;;0.10;0.10;;;;;;;;;;5071327;28;20024;-78
2022/04/25 02:57:43;;;;;;;0.17;0.17;;;;;;;;;;5071541;28;20369;-78
2022/04/25 03:00:09;;;;;;;0.10;0.10;;;;;;;;;;5071367;28;20537;-79
2022/04/25 03:02:35;;;;;;;0.10;0.10;;;;;;;;;;5070942;28;20143;-78
2022/04/25 03:05:01;;;;;;;0.10;0.10;;;;;;;;;;5069932;28;20031;-78
2022/04/25 03:07:27;;;;;;;0.10;0.10;;;;;;;;;;5071096;28;20028;-78
2022/04/25 03:09:53;;;;;;;0.10;0.10;;;;;;;;;;5070030;28;20480;-79
2022/04/25 03:12:19;;;;;;;0.10;0.10;;;;;;;;;;5069757;28;20021;-78
2022/04/25 03:14:45;;;;;;;0.22;0.22;;;;;;;;;;5069977;28;20031;-79
2022/04/25 03:17:12;;;;;;;0.10;0.10;;;;;;;;;;5070315;28;20025;-79
2022/04/25 03:19:38;;;;;;;0.10;0.10;;;;;;;;;;5069703;28;20025;-79
2022/04/25 03:22:04;;;;;;;0.10;0.10;;;;;;;;;;5071014;28;20032;-79
2022/04/25 03:24:30;;;;;;;0.20;0.20;;;;;;;;;;5069640;28;20024;-79
2022/04/25 03:26:57;;;;;;;0.10;0.10;;;;;;;;;;5071249;28;20020;-78
2022/04/25 03:29:23;;;;;;;0.10;0.10;;;;;;;;;;5069505;28;20028;-79
2022/04/25 03:31:49;;;;;;;0.10;0.10;;;;;;;;;;5069766;28;20020;-79
2022/04/25 03:34:15;;;;;;;0.10;0.10;;;;;;;;;;5069654;28;20035;-79
2022/04/25 03:36:44;;;;;;;0.10;0.10;;;;;;;;;;5070098;28;20028;-79
2022/04/25 03:39:11;;;;;;;0.10;0.10;;;;;;;;;;5071316;28;20021;-79
2022/04/25 03:41:37;;;;;;;0.10;0.10;;;;;;;;;;5069365;28;20032;-79
2022/04/25 03:44:06;;;;;;;0.10;0.10;;;;;;;;;;5070722;28;20078;-79
2022/04/25 03:46:32;;;;;;;0.10;0.10;;;;;;;;;;5069419;28;20379;-78
2022/04/25 03:48:58;;;;;;;0.20;0.20;;;;;;;;;;5069419;28;20046;-80
2022/04/25 03:51:24;;;;;;;0.10;0.10;;;;;;;;;;5069566;28;20039;-78
2022/04/25 03:53:50;;;;;;;0.10;0.10;;;;;;;;;;5069562;28;20373;-78
2022/04/25 03:59:00;;;;;;;0.10;0.10;;;;;;;;;;5070913;28;20071;-78
2022/04/25 04:01:26;;;;;;;0.10;0.10;;;;;;;;;;5069181;28;20068;-79
2022/04/25 04:03:53;;;;;;;0.10;0.10;;;;;;;;;;5070767;28;20035;-78
2022/04/25 04:06:19;;;;;;;0.10;0.10;;;;;;;;;;5070651;28;20100;-78
2022/04/25 04:08:46;;;;;;;0.10;0.10;;;;;;;;;;5072647;28;20074;-78
2022/04/25 04:11:12;;;;;;;0.10;0.10;;;;;;;;;;5073351;28;20024;-78
2022/04/25 04:13:38;;;;;;;0.10;0.10;;;;;;;;;;5073086;28;20066;-78
2022/04/25 04:16:04;;;;;;;0.10;0.10;;;;;;;;;;5073295;28;20123;-78
2022/04/25 04:18:31;;;;;;;0.10;0.10;;;;;;;;;;5072992;28;20443;-78
2022/04/25 04:20:57;;;;;;;0.20;0.20;;;;;;;;;;5074469;28;20017;-78
2022/04/25 04:23:23;;;;;;;0.10;0.10;;;;;;;;;;5074092;28;20443;-78
2022/04/25 04:25:49;;;;;;;0.10;0.10;;;;;;;;;;5073021;28;20020;-78
2022/04/25 04:28:15;;;;;;;0.10;0.10;;;;;;;;;;5072813;28;20532;-78
2022/04/25 04:30:43;;;;;;;0.10;0.10;;;;;;;;;;5073156;28;20020;-79
2022/04/25 04:33:09;;;;;;;0.20;0.20;;;;;;;;;;5072976;28;20035;-78
2022/04/25 04:38:20;;;;;;;0.10;0.10;;;;;;;;;;5073881;28;20031;-78
2022/04/25 04:40:46;;;;;;;0.10;0.10;;;;;;;;;;5074052;28;20029;-78
2022/04/25 04:43:12;;;;;;;0.10;0.10;;;;;;;;;;5073068;28;20041;-78
2022/04/25 04:45:38;;;;;;;0.10;0.10;;;;;;;;;;5073762;28;20472;-78
2022/04/25 04:48:04;;;;;;;0.10;0.10;;;;;;;;;;5073876;28;20500;-79
2022/04/25 04:50:30;;;;;;;0.10;0.10;;;;;;;;;;5073599;28;20020;-78
2022/04/25 04:52:57;;;;;;;0.10;0.10;;;;;;;;;;5073802;28;20104;-78
2022/04/25 04:55:23;;;;;;;0.10;0.10;;;;;;;;;;5072334;28;20439;-78
2022/04/25 04:57:50;;;;;;;0.10;0.10;;;;;;;;;;5073807;28;20534;-78
2022/04/25 05:00:17;;;;;;;0.10;0.10;;;;;;;;;;5073179;28;20028;-77
2022/04/25 05:02:46;;;;;;;0.10;0.10;;;;;;;;;;5078103;28;20079;-79
2022/04/25 05:05:13;;;;;;;0.20;0.20;;;;;;;;;;5073140;28;20048;-79
2022/04/25 05:07:39;;;;;;;0.10;0.10;;;;;;;;;;5073810;28;20024;-78
2022/04/25 05:10:06;;;;;;;0.10;0.10;;;;;;;;;;5088204;28;20099;-78
2022/04/25 05:12:43;;;;;;;0.10;0.10;;;;;;;;;;5084838;28;20028;-78
2022/04/25 05:15:10;;;;;;;0.10;0.10;;;;;;;;;;5092459;28;20484;-78
2022/04/25 05:17:36;;;;;;;0.10;0.10;;;;;;;;;;5077573;28;20068;-79
2022/04/25 05:20:02;;;;;;;0.10;0.10;;;;;;;;;;5072863;28;20404;-78
2022/04/25 05:22:28;;;;;;;0.10;0.10;;;;;;;;;;5083504;28;20074;-78
2022/04/25 05:24:54;;;;;;;0.10;0.10;;;;;;;;;;5077172;28;20052;-77
2022/04/25 05:27:21;;;;;;;0.13;0.13;;;;;;;;;;5067173;28;20031;-76
2022/04/25 05:29:47;;;;;;;0.10;0.10;;;;;;;;;;5093542;28;20023;-77
2022/04/25 05:32:13;;;;;;;0.10;0.10;;;;;;;;;;5090098;28;20154;-77
2022/04/25 05:34:39;;;;;;;0.10;0.10;;;;;;;;;;5091807;28;20108;-77
2022/04/25 05:37:05;;;;;;;0.10;0.10;;;;;;;;;;5090210;28;20036;-77
2022/04/25 05:39:32;;;;;;;0.10;0.10;;;;;;;;;;5093030;28;20024;-79
2022/04/25 05:41:59;;;;;;;0.10;0.10;;;;;;;;;;5086367;28;20021;-77
2022/04/25 05:44:25;;;;;;;0.20;0.20;;;;;;;;;;5071437;28;20396;-78
2022/04/25 05:46:51;;;;;;;0.10;0.10;;;;;;;;;;5071437;28;20024;-78
2022/04/25 05:52:05;;;;;;;0.10;0.10;;;;;;;;;;5072263;28;20170;-78
2022/04/25 05:54:32;;;;;;;0.10;0.10;;;;;;;;;;5071241;28;20098;-79
2022/04/25 05:56:58;;;;;;;0.10;0.10;;;;;;;;;;5089657;28;20111;-79
2022/04/25 05:59:24;;;;;;;0.10;0.10;;;;;;;;;;5070667;28;20617;-78
2022/04/25 06:01:50;;;;;;;0.10;0.10;;;;;;;;;;5077074;28;20537;-79
2022/04/25 06:04:16;;;;;;;0.10;0.10;;;;;;;;;;5074992;28;20029;-79
2022/04/25 06:06:42;;;;;;;0.20;0.20;;;;;;;;;;5070395;28;20106;-79
2022/04/25 06:09:08;;;;;;;0.13;0.13;;;;;;;;;;5078158;28;20101;-78
2022/04/25 06:11:34;;;;;;;0.10;0.10;;;;;;;;;;5070574;28;20021;-78
2022/04/25 06:14:02;;;;;;;0.15;0.15;;;;;;;;;;5070755;28;20081;-78
2022/04/25 06:16:28;;;;;;;0.10;0.10;;;;;;;;;;5070427;28;20040;-79
2022/04/25 06:18:54;;;;;;;0.10;0.10;;;;;;;;;;5071104;28;20024;-81
2022/04/25 06:21:20;;;;;;;0.10;0.10;;;;;;;;;;5068924;28;20484;-81
2022/04/25 06:23:46;;;;;;;0.10;0.10;;;;;;;;;;5070864;28;20047;-78
2022/04/25 06:26:12;;;;;;;0.10;0.10;;;;;;;;;;5070907;28;20099;-79
2022/04/25 06:28:38;;;;;;;0.20;0.20;;;;;;;;;;5070881;28;20496;-79
2022/04/25 06:31:04;;;;;;;0.10;0.10;;;;;;;;;;5070665;28;20028;-79
2022/04/25 06:33:30;;;;;;;0.10;0.10;;;;;;;;;;5081723;28;20028;-78
2022/04/25 06:35:56;;;;;;;0.10;0.10;;;;;;;;;;5087021;28;20032;-79
2022/04/25 06:38:22;;;;;;;0.10;0.10;;;;;;;;;;5071516;28;20070;-79
2022/04/25 06:40:50;;;;;;;0.10;0.10;;;;;;;;;;5071762;28;20081;-79
2022/04/25 06:43:16;;;;;;;0.10;0.10;;;;;;;;;;5069623;28;20040;-79
2022/04/25 06:45:43;;;;;;;0.10;0.10;;;;;;;;;;5072522;28;20080;-78
2022/04/25 06:48:09;;;;;;;0.10;0.10;;;;;;;;;;5077012;28;20127;-79
2022/04/25 06:50:35;;;;;;;0.10;0.10;;;;;;;;;;5071490;28;20523;-78
2022/04/25 06:53:01;;;;;;;0.10;0.10;;;;;;;;;;5071561;28;20119;-78
2022/04/25 06:55:28;;;;;;;0.10;0.10;;;;;;;;;;5070023;28;20056;-78
2022/04/25 06:57:54;;;;;;;0.10;0.10;;;;;;;;;;5069916;28;20052;-79
2022/04/25 07:00:22;;;;;;;0.10;0.10;;;;;;;;;;5069846;28;20035;-78
2022/04/25 07:02:49;;;;;;;0.20;0.20;;;;;;;;;;5071272;28;20476;-78
2022/04/25 07:05:15;;;;;;;0.10;0.10;;;;;;;;;;5086999;28;20577;-79
2022/04/25 07:07:42;;;;;;;0.10;0.10;;;;;;;;;;5069878;28;20369;-78
2022/04/25 07:10:08;;;;;;;0.10;0.10;;;;;;;;;;5071347;28;20388;-78
2022/04/25 07:12:35;;;;;;;0.10;0.10;;;;;;;;;;5069507;28;20107;-79
2022/04/25 07:15:01;;;;;;;0.10;0.10;;;;;;;;;;5070141;28;20020;-79
2022/04/25 07:17:28;;;;;;;0.10;0.10;;;;;;;;;;5069940;28;20078;-78
2022/04/25 07:19:54;;;;;;;0.10;0.10;;;;;;;;;;5069583;28;20021;-79
2022/04/25 07:30:34;;;;;;;0.17;0.17;;;;;;;;;;5079819;28;20040;-80
2022/04/25 07:33:01;;;;;;;0.10;0.10;;;;;;;;;;5069882;28;20104;-79
2022/04/25 07:35:27;;;;;;;0.10;0.10;;;;;;;;;;5070454;28;20029;-79
2022/04/25 07:37:55;;;;;;;0.20;0.20;;;;;;;;;;5071162;28;20024;-79
2022/04/25 07:40:21;;;;;;;0.10;0.10;;;;;;;;;;5069519;28;20021;-79
2022/04/25 07:42:48;;;;;;;0.10;0.10;;;;;;;;;;5070775;28;20039;-81
2022/04/25 07:45:14;;;;;;;0.10;0.10;;;;;;;;;;5074410;28;20016;-79
2022/04/25 07:47:43;;;;;;;0.17;0.17;;;;;;;;;;5073760;28;20403;-79
2022/04/25 07:50:10;;;;;;;0.10;0.10;;;;;;;;;;5073781;28;20476;-79
2022/04/25 07:52:36;;;;;;;0.10;0.10;;;;;;;;;;5073932;28;20480;-79
2022/04/25 07:55:03;;;;;;;0.10;0.10;;;;;;;;;;5073854;28;20025;-79
2022/04/25 07:57:29;;;;;;;0.10;0.10;;;;;;;;;;5073003;28;20062;-79
2022/04/25 07:59:56;;;;;;;0.10;0.10;;;;;;;;;;5073622;28;20029;-79
2022/04/25 08:02:23;;;;;;;0.10;0.10;;;;;;;;;;5073289;28;20119;-79
2022/04/25 08:04:49;;;;;;;0.10;0.10;;;;;;;;;;5073535;28;20115;-79
2022/04/25 08:07:16;;;;;;;0.10;0.10;;;;;;;;;;5073255;28;20056;-79
2022/04/25 08:09:42;;;;;;;0.10;0.10;;;;;;;;;;5075920;28;20103;-79
2022/04/25 08:20:22;;;;;;;0.10;0.10;;;;;;;;;;5074599;28;20416;-79
2022/04/25 08:22:48;;;;;;;0.10;0.10;;;;;;;;;;5087302;28;20043;-80
2022/04/25 08:25:16;;;;;;;0.10;0.10;;;;;;;;;;5093347;28;20020;-80
2022/04/25 08:27:42;;;;;;;0.10;0.10;;;;;;;;;;5092517;28;20032;-79
2022/04/25 08:30:08;;;;;;;0.10;0.10;;;;;;;;;;5093301;28;20080;-77
2022/04/25 08:32:35;;;;;;;0.10;0.10;;;;;;;;;;5092914;28;20470;-76
2022/04/25 08:35:01;;;;;;;0.10;0.10;;;;;;;;;;5074591;28;20035;-76
2022/04/25 08:37:27;;;;;;;0.10;0.10;;;;;;;;;;5072416;28;20407;-77
2022/04/25 08:39:53;;;;;;;0.10;0.10;;;;;;;;;;5075952;28;20016;-79
2022/04/25 08:42:20;;;;;;;0.17;0.17;;;;;;;;;;5084437;28;20044;-77
2022/04/25 08:44:57;;;;;;;0.20;0.20;;;;;;;;;;5093197;28;20028;-76
2022/04/25 08:47:27;;;;;;;0.10;0.10;;;;;;;;;;5080030;28;20029;-77
2022/04/25 08:49:53;;;;;;;0.10;0.10;;;;;;;;;;5072726;28;20059;-77
2022/04/25 08:52:19;;;;;;;0.10;0.10;;;;;;;;;;5076822;28;20533;-78
2022/04/25 08:54:46;;;;;;;0.10;0.10;;;;;;;;;;5074227;28;20020;-78
2022/04/25 08:57:14;;;;;;;0.10;0.10;;;;;;;;;;5073865;28;20079;-77
2022/04/25 08:59:41;;;;;;;0.10;0.10;;;;;;;;;;5074128;28;20082;-76
2022/04/25 09:02:08;;;;;;;0.10;0.10;;;;;;;;;;5073296;28;20029;-75
2022/04/25 09:04:35;;;;;;;0.10;0.10;;;;;;;;;;5074223;28;20639;-75
2022/04/25 09:07:01;;;;;;;0.10;0.10;;;;;;;;;;5072263;28;20488;-75
2022/04/25 09:09:27;;;;;;;0.10;0.10;;;;;;;;;;5073390;28;20065;-75
2022/04/25 09:12:14;;;;;;;0.10;0.10;;;;;;;;;;5072273;28;20016;-74
2022/04/25 09:14:41;;;;;;;0.10;0.10;;;;;;;;;;5077417;28;20020;-75
2022/04/25 09:17:07;;;;;;;0.10;0.10;;;;;;;;;;5088120;28;20024;-75
2022/04/25 09:19:34;;;;;;;0.10;0.10;;;;;;;;;;5087423;28;20027;-75
2022/04/25 09:22:01;;;;;;;0.10;0.10;;;;;;;;;;5076431;28;20043;-75
2022/04/25 09:24:27;;;;;;;0.10;0.10;;;;;;;;;;5089814;28;20111;-74
2022/04/25 09:27:13;;;;;;;0.10;0.10;;;;;;;;;;5082355;28;20104;-74
2022/04/25 09:29:40;;;;;;;0.20;0.20;;;;;;;;;;5080606;28;20028;-75
2022/04/25 09:32:09;;;;;;;0.10;0.10;;;;;;;;;;5088345;28;20028;-74
2022/04/25 09:37:20;;;;;;;0.20;0.20;;;;;;;;;;5093268;28;20392;-74
2022/04/25 09:39:46;;;;;;;0.10;0.10;;;;;;;;;;5091989;28;20024;-74
2022/04/25 09:42:14;;;;;;;0.10;0.10;;;;;;;;;;5089186;28;20036;-74
2022/04/25 09:44:59;;;;;;;0.10;0.10;;;;;;;;;;5082207;28;20502;-74
2022/04/25 09:47:29;;;;;;;0.10;0.10;;;;;;;;;;5091507;28;20035;-74
2022/04/25 09:50:13;;;;;;;0.10;0.10;;;;;;;;;;5052736;28;20021;-74
2022/04/25 09:52:53;;;;;;;0.20;0.20;;;;;;;;;;5051245;28;20044;-74
2022/04/25 09:55:20;;;;;;;0.10;0.10;;;;;;;;;;5052631;28;20021;-74
2022/04/25 09:57:48;;;;;;;0.10;0.10;;;;;;;;;;5071226;28;20025;-74
2022/04/25 10:00:33;;;;;;;0.10;0.10;;;;;;;;;;5091750;28;20369;-74
2022/04/25 10:02:59;;;;;;;0.10;0.10;;;;;;;;;;5091154;28;20084;-74
2022/04/25 10:05:36;;;;;;;0.10;0.10;;;;;;;;;;5091567;28;20069;-74
2022/04/25 10:08:02;;;;;;;0.10;0.10;;;;;;;;;;5091195;28;20399;-74
2022/04/25 10:10:28;;;;;;;0.10;0.10;;;;;;;;;;5091216;28;20475;-74
2022/04/25 10:12:55;;;;;;;0.10;0.10;;;;;;;;;;5092473;28;20024;-74
2022/04/25 10:15:22;;;;;;;0.10;0.10;;;;;;;;;;5083094;28;20110;-74
2022/04/25 10:17:48;;;;;;;0.10;0.10;;;;;;;;;;5070588;28;20514;-74
2022/04/25 10:20:15;;;;;;;0.10;0.10;;;;;;;;;;5074298;28;20024;-74
2022/04/25 10:22:42;;;;;;;0.10;0.10;;;;;;;;;;5086666;28;20047;-73
2022/04/25 10:25:08;;;;;;;0.10;0.10;;;;;;;;;;5090793;28;20016;-74
2022/04/25 10:27:35;;;;;;;0.10;0.10;;;;;;;;;;5089894;28;20038;-74
2022/04/25 10:30:08;;;;;;;0.10;0.10;;;;;;;;;;5077054;28;20020;-75
2022/04/25 10:32:34;;;;;;;0.10;0.10;;;;;;;;;;5071881;28;20551;-74
2022/04/25 10:35:00;;;;;;;0.10;0.10;;;;;;;;;;5085102;28;20104;-74
2022/04/25 10:37:36;;;;;;;0.20;0.20;;;;;;;;;;5091874;28;20115;-74
2022/04/25 10:40:06;;;;;;;0.10;0.10;;;;;;;;;;5079343;28;20028;-75
2022/04/25 10:45:17;;;;;;;0.10;0.10;;;;;;;;;;5091235;28;20502;-74
2022/04/25 10:48:00;;;;;;;0.10;0.10;;;;;;;;;;5083011;28;20086;-74
2022/04/25 10:50:26;;;;;;;0.10;0.10;;;;;;;;;;5086887;28;20016;-74
2022/04/25 10:52:57;;;;;;;0.10;0.10;;;;;;;;;;5088062;28;20028;-74
2022/04/25 10:55:38;;;;;;;0.20;0.20;;;;;;;;;;5050077;28;20049;-74
2022/04/25 10:58:04;;;;;;;0.10;0.10;;;;;;;;;;5050102;28;20059;-73
2022/04/25 11:00:36;;;;;;;0.10;0.10;;;;;;;;;;5057464;28;20027;-74
2022/04/25 11:03:12;;;;;;;0.10;0.10;;;;;;;;;;5051461;28;20041;-73
2022/04/25 11:05:45;;;;;;;0.20;0.20;;;;;;;;;;5087868;28;20073;-74
2022/04/25 11:08:20;;;;;;;0.10;0.10;;;;;;;;;;5090200;28;20391;-74
2022/04/25 11:10:45;;;;;;;0.10;0.10;;;;;;;;;;5077280;28;20027;-74
2022/04/25 11:13:17;;;;;;;0.10;0.10;;;;;;;;;;5071515;28;20032;-74
2022/04/25 11:15:42;;;;;;;0.10;0.10;;;;;;;;;;5071475;28;20013;-73
2022/04/25 11:18:24;;;;;;;0.10;0.10;;;;;;;;;;5070757;28;20024;-74
2022/04/25 11:21:14;;;;;;;0.10;0.10;;;;;;;;;;5071097;28;20021;-74
2022/04/25 11:23:47;;;;;;;0.10;0.10;;;;;;;;;;5062042;28;20036;-74
2022/04/25 11:26:19;;;;;;;0.10;0.10;;;;;;;;;;5070227;28;20479;-74
2022/04/25 11:29:01;;;;;;;0.10;0.10;;;;;;;;;;5071145;28;20013;-74
2022/04/25 11:31:34;;;;;;;0.10;0.10;;;;;;;;;;5069668;28;20036;-74
2022/04/25 11:34:01;;;;;;;0.10;0.10;;;;;;;;;;5069810;28;20059;-74
2022/04/25 11:36:29;;;;;;;0.10;0.10;;;;;;;;;;5070849;28;20090;-74
2022/04/25 11:41:40;;;;;;;0.10;0.10;;;;;;;;;;5071586;28;20396;-74
2022/04/25 11:44:07;;;;;;;0.10;0.10;;;;;;;;;;5070955;28;20032;-74
2022/04/25 11:46:33;;;;;;;0.10;0.10;;;;;;;;;;5069454;28;20024;-74
2022/04/25 11:49:00;;;;;;;0.10;0.10;;;;;;;;;;5070857;28;20032;-74
2022/04/25 11:51:26;;;;;;;0.10;0.10;;;;;;;;;;5069350;28;20031;-74
2022/04/25 11:53:57;;;;;;;0.10;0.10;;;;;;;;;;5070944;28;20024;-74
2022/04/25 11:56:23;;;;;;;0.10;0.10;;;;;;;;;;5069329;28;20032;-74
2022/04/25 11:58:49;;;;;;;0.10;0.10;;;;;;;;;;5070883;28;20149;-74
2022/04/25 12:01:36;;;;;;;0.10;0.10;;;;;;;;;;5069278;28;20032;-76
2022/04/25 12:04:20;;;;;;;0.10;0.10;;;;;;;;;;5071053;28;20033;-75
2022/04/25 12:06:56;;;;;;;0.10;0.10;;;;;;;;;;5069337;28;20025;-76
2022/04/25 12:17:47;;;;;;;0.10;0.10;;;;;;;;;;5070478;28;20063;-76
2022/04/25 12:20:14;;;;;;;0.10;0.10;;;;;;;;;;5069617;28;20024;-75
2022/04/25 12:22:50;;;;;;;0.10;0.10;;;;;;;;;;5070815;28;20037;-76
2022/04/25 12:25:17;;;;;;;0.10;0.10;;;;;;;;;;5068869;28;20028;-75
2022/04/25 12:28:02;;;;;;;0.10;0.10;;;;;;;;;;5071141;28;20044;-75
2022/04/25 12:30:29;;;;;;;0.10;0.10;;;;;;;;;;5073279;28;20446;-76
2022/04/25 12:33:09;;;;;;;0.10;0.10;;;;;;;;;;5073037;28;20031;-75
2022/04/25 12:35:36;;;;;;;0.10;0.10;;;;;;;;;;5073998;28;20401;-75
2022/04/25 12:38:03;;;;;;;0.10;0.10;;;;;;;;;;5072984;28;20115;-75
2022/04/25 12:40:29;;;;;;;0.10;0.10;;;;;;;;;;5072585;28;20119;-75
2022/04/25 12:42:55;;;;;;;0.10;0.10;;;;;;;;;;5072685;28;20036;-75
2022/04/25 12:45:24;;;;;;;0.10;0.10;;;;;;;;;;5073873;28;20025;-75
2022/04/25 12:47:57;;;;;;;0.10;0.10;;;;;;;;;;5073845;28;20037;-76
2022/04/25 12:50:42;;;;;;;0.20;0.20;;;;;;;;;;5072528;28;20107;-75
2022/04/25 12:53:08;;;;;;;0.10;0.10;;;;;;;;;;5074084;28;20039;-75
2022/04/25 12:55:44;;;;;;;0.10;0.10;;;;;;;;;;5073794;28;20059;-75
2022/04/25 12:58:11;;;;;;;0.10;0.10;;;;;;;;;;5076150;28;20111;-75
2022/04/25 13:00:41;;;;;;;0.10;0.10;;;;;;;;;;5072241;28;20108;-76
2022/04/25 13:03:08;;;;;;;0.10;0.10;;;;;;;;;;5072415;28;20040;-76
2022/04/25 13:05:34;;;;;;;0.10;0.10;;;;;;;;;;5071823;28;20140;-76
2022/04/25 13:08:01;;;;;;;0.10;0.10;;;;;;;;;;5073456;28;20484;-77
2022/04/25 13:10:27;;;;;;;0.10;0.10;;;;;;;;;;5072446;28;20024;-77
2022/04/25 13:12:56;;;;;;;0.10;0.10;;;;;;;;;;5073537;28;20032;-77
2022/04/25 13:15:27;;;;;;;0.10;0.10;;;;;;;;;;5072088;28;20070;-77
2022/04/25 13:17:54;;;;;;;0.10;0.10;;;;;;;;;;5072276;28;20024;-77
2022/04/25 13:20:20;;;;;;;0.10;0.10;;;;;;;;;;5073286;28;20024;-77
2022/04/25 13:22:47;;;;;;;0.10;0.10;;;;;;;;;;5073462;28;20041;-78
2022/04/25 13:25:14;;;;;;;0.10;0.10;;;;;;;;;;5072292;28;20473;-77
2022/04/25 13:27:41;;;;;;;0.10;0.10;;;;;;;;;;5073608;28;20020;-78
2022/04/25 13:30:08;;;;;;;0.15;0.15;;;;;;;;;;5072015;28;20162;-79
2022/04/25 13:32:35;;;;;;;0.10;0.10;;;;;;;;;;5071631;28;20021;-78
2022/04/25 13:35:01;;;;;;;0.10;0.10;;;;;;;;;;5071989;28;20036;-77
2022/04/25 13:37:31;;;;;;;0.20;0.20;;;;;;;;;;5073019;28;20052;-77
2022/04/25 13:39:57;;;;;;;0.10;0.10;;;;;;;;;;5072691;28;20024;-77
2022/04/25 13:42:23;;;;;;;0.10;0.10;;;;;;;;;;5071910;28;20037;-77
2022/04/25 13:44:49;;;;;;;0.10;0.10;;;;;;;;;;5072999;28;20095;-77
2022/04/25 13:47:15;;;;;;;0.10;0.10;;;;;;;;;;5072591;28;20040;-77
2022/04/25 13:49:41;;;;;;;0.03;0.03;;;;;;;;;;5073342;28;20468;-77
2022/04/25 13:52:08;;;;;;;0.10;0.10;;;;;;;;;;5071833;28;20032;-77
2022/04/25 13:54:35;;;;;;;0.10;0.10;;;;;;;;;;5072883;28;20508;-77
2022/04/25 13:57:01;;;;;;;0.10;0.10;;;;;;;;;;5072709;28;20376;-77
2022/04/25 13:59:27;;;;;;;0.13;0.13;;;;;;;;;;5072478;28;20028;-76
2022/04/25 14:01:53;;;;;;;0.10;0.10;;;;;;;;;;5072585;28;20029;-76
2022/04/25 14:04:19;;;;;;;0.10;0.10;;;;;;;;;;5072345;28;20099;-77
2022/04/25 14:06:45;;;;;;;0.10;0.10;;;;;;;;;;5073104;28;20106;-77
2022/04/25 14:09:11;;;;;;;0.10;0.10;;;;;;;;;;5072764;28;20506;-76
2022/04/25 14:11:37;;;;;;;0.10;0.10;;;;;;;;;;5070840;28;20024;-76
2022/04/25 14:14:04;;;;;;;0.10;0.10;;;;;;;;;;5072338;28;20020;-76
2022/04/25 14:16:30;;;;;;;0.10;0.10;;;;;;;;;;5072085;28;20094;-77
2022/04/25 14:18:56;;;;;;;0.10;0.10;;;;;;;;;;5072238;28;20032;-76
2022/04/25 14:21:23;;;;;;;0.10;0.10;;;;;;;;;;5071963;28;20024;-76
2022/04/25 14:23:49;;;;;;;0.10;0.10;;;;;;;;;;5070823;28;20037;-76
2022/04/25 14:26:17;;;;;;;0.10;0.10;;;;;;;;;;5070709;28;20499;-77
2022/04/25 14:28:44;;;;;;;0.10;0.10;;;;;;;;;;5072363;28;20021;-76
2022/04/25 14:31:10;;;;;;;0.10;0.10;;;;;;;;;;5072420;28;20111;-76
2022/04/25 14:33:37;;;;;;;0.10;0.10;;;;;;;;;;5071779;28;20024;-77
2022/04/25 14:36:03;;;;;;;0.10;0.10;;;;;;;;;;5070720;28;20065;-77
2022/04/25 14:38:29;;;;;;;0.10;0.10;;;;;;;;;;5071621;28;20085;-77
2022/04/25 14:40:56;;;;;;;0.10;0.10;;;;;;;;;;5070593;28;20029;-77
2022/04/25 14:43:23;;;;;;;0.70;0.70;;;;;;;;;;5071575;28;20491;-77
2022/04/25 14:45:49;;;;;;;0.10;0.10;;;;;;;;;;5070457;28;20027;-77
2022/04/25 14:48:16;;;;;;;0.10;0.10;;;;;;;;;;5071404;28;20043;-77
2022/04/25 14:56:12;;;;;;;0.10;0.10;;;;;;;;;;5072206;28;20514;-78
2022/04/25 14:58:38;;;;;;;0.10;0.10;;;;;;;;;;5071349;28;20028;-77
2022/04/25 15:01:04;;;;;;;0.10;0.10;;;;;;;;;;5071450;28;20077;-77
2022/04/25 15:03:30;;;;;;;0.10;0.10;;;;;;;;;;5071137;28;20033;-77
2022/04/25 15:05:57;;;;;;;0.10;0.10;;;;;;;;;;5070141;28;20027;-77
2022/04/25 15:08:23;;;;;;;0.10;0.10;;;;;;;;;;5069941;28;20117;-76
2022/04/25 15:10:49;;;;;;;0.10;0.10;;;;;;;;;;5071330;28;20020;-76
2022/04/25 15:13:15;;;;;;;0.10;0.10;;;;;;;;;;5071228;28;20024;-77
2022/04/25 15:15:42;;;;;;;0.10;0.10;;;;;;;;;;5071574;28;20023;-76
2022/04/25 15:18:09;;;;;;;0.10;0.10;;;;;;;;;;5071286;28;20024;-77
2022/04/25 15:20:35;;;;;;;0.10;0.10;;;;;;;;;;5071161;28;20750;-76
2022/04/25 15:23:03;;;;;;;0.10;0.10;;;;;;;;;;5071099;28;20115;-77
2022/04/25 15:25:29;;;;;;;0.10;0.10;;;;;;;;;;5071086;28;20024;-77
2022/04/25 15:27:55;;;;;;;0.10;0.10;;;;;;;;;;5069845;28;20032;-78
2022/04/25 15:30:21;;;;;;;0.10;0.10;;;;;;;;;;5070944;28;20025;-77
2022/04/25 15:32:47;;;;;;;0.10;0.10;;;;;;;;;;5071304;28;20028;-77
2022/04/25 15:35:13;;;;;;;0.10;0.10;;;;;;;;;;5069982;28;20020;-77